Time;durP1;ratioP1;P1;durP2;ratioP2;P2;SDS_P1;SDS_P2;PMS_P1;PMS_P2;Temp;Humidity;BMP_temperature;BMP_pressure;BME280_temperature;BME280_humidity;BME280_pressure;Samples;Min_cycle;Max_cycle;Signal;HPM_P1;HPM_P2
2021/03/25 00:00:23;;;;;;;29.33;18.20;;;;;;;10.73;41.32;100995.25;5032262;28;20037;-63
2021/03/25 00:02:49;;;;;;;26.08;18.05;;;;;;;10.60;41.89;100993.16;5031569;28;20038;-65
2021/03/25 00:05:17;;;;;;;26.95;18.10;;;;;;;10.66;41.17;100988.59;5032068;28;20451;-65
2021/03/25 00:07:43;;;;;;;28.77;19.35;;;;;;;10.62;41.45;100987.00;5030852;28;20088;-66
2021/03/25 00:10:26;;;;;;;29.80;19.65;;;;;;;10.65;41.29;100980.78;5029394;28;20053;-66
2021/03/25 00:12:53;;;;;;;31.70;18.92;;;;;;;10.65;41.10;100991.22;5034652;28;20041;-65
2021/03/25 00:15:19;;;;;;;30.33;20.90;;;;;;;10.53;41.58;100989.94;5036147;28;20073;-66
2021/03/25 00:17:46;;;;;;;28.25;18.02;;;;;;;10.52;41.91;100990.00;5051311;22;20089;-64
2021/03/25 00:20:14;;;;;;;27.02;19.40;;;;;;;10.54;41.82;100985.56;5056118;28;20124;-65
2021/03/25 00:22:41;;;;;;;26.83;19.00;;;;;;;10.48;41.67;100989.25;5056182;28;20045;-66
2021/03/25 00:25:11;;;;;;;28.27;18.52;;;;;;;10.58;41.81;100992.38;5056127;28;20052;-66
2021/03/25 00:27:38;;;;;;;26.88;18.30;;;;;;;10.72;41.75;100983.13;5050781;28;20064;-65
2021/03/25 00:30:06;;;;;;;29.02;18.38;;;;;;;10.56;42.29;100981.16;5042816;28;20100;-65
2021/03/25 00:32:33;;;;;;;27.20;18.23;;;;;;;10.47;42.48;100977.16;5046598;28;20247;-65
2021/03/25 00:35:00;;;;;;;30.20;20.48;;;;;;;10.49;41.95;100976.19;5044037;28;20041;-66
2021/03/25 00:37:26;;;;;;;30.55;20.90;;;;;;;10.48;42.09;100982.28;5042369;28;20033;-66
2021/03/25 00:39:53;;;;;;;25.45;17.77;;;;;;;10.49;42.55;100981.41;5042128;28;20068;-66
2021/03/25 00:42:19;;;;;;;26.75;18.25;;;;;;;10.53;42.10;100978.66;5045847;28;20499;-66
2021/03/25 00:44:47;;;;;;;28.05;18.83;;;;;;;10.58;42.07;100971.53;5043492;28;20506;-66
2021/03/25 00:47:13;;;;;;;33.50;19.40;;;;;;;10.46;42.51;100976.31;5043243;28;20041;-65
2021/03/25 00:49:40;;;;;;;30.42;19.55;;;;;;;10.40;42.68;100971.31;5046792;28;20480;-65
2021/03/25 00:52:08;;;;;;;26.98;19.73;;;;;;;10.46;42.25;100975.44;5041804;28;20048;-65
2021/03/25 00:54:36;;;;;;;31.05;19.40;;;;;;;10.56;42.43;100975.97;5038221;28;20047;-65
2021/03/25 00:57:03;;;;;;;28.65;18.77;;;;;;;10.48;42.23;100971.88;5037876;28;20040;-66
2021/03/25 00:59:30;;;;;;;30.13;18.92;;;;;;;10.39;42.69;100968.78;5041819;28;20479;-65
2021/03/25 01:01:56;;;;;;;25.73;17.80;;;;;;;10.36;43.13;100967.13;5046928;28;20124;-66
2021/03/25 01:04:23;;;;;;;30.52;19.65;;;;;;;10.43;42.98;100968.59;5047946;28;20056;-66
2021/03/25 01:06:49;;;;;;;27.40;18.42;;;;;;;10.44;42.58;100969.47;5044125;28;20037;-65
2021/03/25 01:09:25;;;;;;;26.67;17.08;;;;;;;10.35;42.66;100977.63;5042544;28;20499;-65
2021/03/25 01:11:52;;;;;;;27.13;17.13;;;;;;;10.17;43.37;100969.56;5043239;28;20518;-66
2021/03/25 01:14:22;;;;;;;24.95;16.80;;;;;;;10.22;43.09;100971.97;5044399;28;20135;-66
2021/03/25 01:16:51;;;;;;;32.42;18.30;;;;;;;10.26;42.93;100968.38;5057154;28;20408;-65
2021/03/25 01:19:30;;;;;;;26.65;18.17;;;;;;;10.23;42.91;100971.97;5041397;28;20052;-66
2021/03/25 01:21:58;;;;;;;23.38;16.45;;;;;;;10.16;43.19;100967.81;5039993;28;20046;-66
2021/03/25 01:24:26;;;;;;;26.42;18.58;;;;;;;10.17;42.75;100968.66;5059413;28;20051;-66
2021/03/25 01:26:54;;;;;;;21.88;16.10;;;;;;;10.22;43.67;100961.53;5042980;28;20055;-66
2021/03/25 01:29:21;;;;;;;28.45;18.85;;;;;;;10.20;43.44;100968.56;5047957;28;20091;-65
2021/03/25 01:31:48;;;;;;;24.38;16.45;;;;;;;10.15;43.58;100955.72;5045807;28;20055;-66
2021/03/25 01:34:18;;;;;;;34.00;19.90;;;;;;;10.20;42.71;100958.16;5047056;28;20099;-66
2021/03/25 01:36:46;;;;;;;28.17;16.73;;;;;;;10.07;43.71;100962.13;5043533;28;20041;-66
2021/03/25 01:39:14;;;;;;;27.33;18.55;;;;;;;10.07;43.36;100956.91;5045594;28;20124;-66
2021/03/25 01:41:43;;;;;;;26.08;18.45;;;;;;;10.11;43.19;100959.31;5049491;28;20037;-66
2021/03/25 01:44:31;;;;;;;23.55;17.15;;;;;;;9.97;43.79;100954.63;5042617;28;20068;-66
2021/03/25 01:46:58;;;;;;;28.85;18.33;;;;;;;10.00;44.10;100966.69;5041086;28;20045;-66
2021/03/25 01:49:24;;;;;;;27.30;17.20;;;;;;;10.01;44.02;100964.94;5043947;28;20557;-66
2021/03/25 01:51:51;;;;;;;28.20;18.30;;;;;;;9.81;44.37;100961.31;5057420;28;20099;-66
2021/03/25 01:54:47;;;;;;;27.60;17.63;;;;;;;9.78;44.63;100957.94;5057705;28;20048;-66
2021/03/25 01:57:51;;;;;;;31.00;18.70;;;;;;;9.87;44.84;100966.28;5037541;28;20500;-66
2021/03/25 02:00:21;;;;;;;24.10;18.10;;;;;;;9.64;45.45;100961.00;5041936;28;20053;-66
2021/03/25 02:03:12;;;;;;;26.75;19.40;;;;;;;9.86;44.65;100963.75;5045251;28;20132;-66
2021/03/25 02:05:56;;;;;;;25.65;18.50;;;;;;;9.66;44.84;100954.03;5044574;28;20075;-66
2021/03/25 02:08:38;;;;;;;25.50;18.25;;;;;;;9.72;44.85;100964.22;5043746;28;20488;-66
2021/03/25 02:11:28;;;;;;;29.92;19.98;;;;;;;9.72;45.13;100956.41;5060085;28;20053;-66
2021/03/25 02:14:17;;;;;;;30.02;19.80;;;;;;;9.67;45.08;100953.13;5035095;28;20415;-66
2021/03/25 02:17:06;;;;;;;28.95;19.67;;;;;;;9.60;45.76;100962.91;5046359;28;20069;-66
2021/03/25 02:20:08;;;;;;;;;;;;;;;9.70;45.27;100958.22;5045820;28;20503;-66
2021/03/25 02:22:47;;;;;;;29.85;19.65;;;;;;;9.68;45.42;100960.88;5061356;28;19970;-66
2021/03/25 02:25:22;;;;;;;31.05;18.08;;;;;;;9.65;45.63;100952.34;5038622;28;20117;-65
2021/03/25 02:28:17;;;;;;;28.20;18.85;;;;;;;9.69;45.21;100951.28;5039775;28;20580;-66
2021/03/25 02:30:46;;;;;;;27.67;18.15;;;;;;;9.56;45.71;100952.63;5041344;28;20136;-66
2021/03/25 02:33:21;;;;;;;21.65;15.30;;;;;;;9.42;46.22;100958.31;5043791;28;20041;-66
2021/03/25 02:36:04;;;;;;;23.35;17.50;;;;;;;9.32;46.91;100955.19;5040313;28;20045;-65
2021/03/25 02:38:44;;;;;;;23.90;17.73;;;;;;;9.69;45.81;100951.28;5046612;28;20119;-65
2021/03/25 02:41:13;;;;;;;27.92;18.88;;;;;;;9.92;44.86;100953.94;5039209;28;20132;-65
2021/03/25 02:44:02;;;;;;;26.63;15.52;;;;;;;9.55;45.65;100954.41;5039743;28;20050;-65
2021/03/25 02:46:36;;;;;;;22.95;15.85;;;;;;;9.32;46.56;100951.72;5040363;28;20118;-65
2021/03/25 02:49:10;;;;;;;24.60;15.30;;;;;;;9.30;46.67;100950.91;5058013;28;20041;-64
2021/03/25 02:52:02;;;;;;;24.92;15.57;;;;;;;9.30;46.45;100946.56;5042209;28;20398;-64
2021/03/25 02:54:33;;;;;;;21.90;16.58;;;;;;;9.19;46.95;100949.53;5033167;28;20040;-64
2021/03/25 02:57:09;;;;;;;23.00;14.65;;;;;;;9.13;46.76;100948.88;5038104;28;20044;-64
2021/03/25 02:59:39;;;;;;;23.13;16.95;;;;;;;9.28;46.90;100945.78;5046318;28;20048;-64
2021/03/25 03:02:31;;;;;;;18.80;13.80;;;;;;;9.18;47.15;100953.03;5045373;28;20043;-64
2021/03/25 03:05:16;;;;;;;22.40;15.27;;;;;;;9.16;47.12;100959.16;5056291;28;20076;-63
2021/03/25 03:08:08;;;;;;;23.30;16.60;;;;;;;9.12;47.48;100957.59;5037084;28;20041;-64
2021/03/25 03:11:07;;;;;;;21.35;15.55;;;;;;;9.02;48.00;100964.84;5041836;28;20064;-62
2021/03/25 03:13:40;;;;;;;24.23;16.50;;;;;;;9.04;47.78;100960.41;5038496;28;20080;-64
2021/03/25 03:16:14;;;;;;;28.90;18.63;;;;;;;9.16;47.12;100956.56;5044629;28;20068;-64
2021/03/25 03:18:52;;;;;;;23.45;15.57;;;;;;;9.32;46.86;100960.38;5056374;28;20049;-63
2021/03/25 03:21:49;;;;;;;25.17;14.70;;;;;;;9.19;47.13;100962.53;5043086;28;20407;-64
2021/03/25 03:24:51;;;;;;;24.90;16.02;;;;;;;9.14;47.28;100964.44;5038836;28;20041;-65
2021/03/25 03:27:34;;;;;;;22.45;16.88;;;;;;;9.11;47.65;100963.69;5037657;28;20494;-65
2021/03/25 03:30:07;;;;;;;22.80;17.07;;;;;;;9.04;48.22;100964.78;5053848;28;20045;-67
2021/03/25 03:32:47;;;;;;;21.92;16.58;;;;;;;9.14;47.48;100959.22;5040893;28;20653;-65
2021/03/25 03:35:25;;;;;;;27.48;18.83;;;;;;;9.08;47.49;100962.03;5040550;28;20046;-65
2021/03/25 03:37:59;;;;;;;24.67;15.48;;;;;;;8.87;48.48;100955.75;5044160;28;20120;-66
2021/03/25 03:40:32;;;;;;;23.20;16.55;;;;;;;8.98;47.92;100962.38;5042177;28;20050;-66
2021/03/25 03:43:08;;;;;;;23.65;16.55;;;;;;;8.96;48.24;100959.00;5042905;28;20041;-66
2021/03/25 03:45:45;;;;;;;22.23;15.75;;;;;;;8.84;48.46;100968.88;5042425;28;20487;-66
2021/03/25 03:48:34;;;;;;;24.45;15.68;;;;;;;8.79;48.71;100970.78;5037512;28;20107;-66
2021/03/25 03:51:05;;;;;;;20.73;14.63;;;;;;;8.74;48.91;100975.25;5040441;28;20041;-66
2021/03/25 03:53:34;;;;;;;22.80;13.98;;;;;;;8.75;48.98;100966.56;5043545;28;20042;-66
2021/03/25 03:56:16;;;;;;;21.65;14.93;;;;;;;8.65;49.17;100965.13;5043217;28;20529;-66
2021/03/25 03:58:50;;;;;;;20.27;13.18;;;;;;;8.74;48.91;100964.00;5042519;28;20073;-66
2021/03/25 04:01:23;;;;;;;17.40;13.38;;;;;;;8.85;48.76;100962.78;5041259;28;20090;-65
2021/03/25 04:04:01;;;;;;;18.05;12.40;;;;;;;8.84;48.43;100971.47;5053627;28;20041;-65
2021/03/25 04:07:00;;;;;;;20.02;14.48;;;;;;;8.98;48.09;100967.56;5041779;28;20445;-65
2021/03/25 04:10:02;;;;;;;19.90;13.98;;;;;;;8.84;48.72;100960.19;5051420;28;20042;-65
2021/03/25 04:12:39;;;;;;;20.85;14.02;;;;;;;8.78;49.28;100970.78;5054006;28;20049;-66
2021/03/25 04:15:20;;;;;;;18.58;14.02;;;;;;;8.77;49.05;100975.16;5037887;28;20119;-67
2021/03/25 04:18:23;;;;;;;18.05;13.23;;;;;;;8.81;49.39;100979.34;5037900;28;20053;-67
2021/03/25 04:21:24;;;;;;;23.10;17.15;;;;;;;8.81;48.73;100981.13;5031011;28;20045;-67
2021/03/25 04:23:52;;;;;;;23.55;15.85;;;;;;;8.53;49.22;100981.97;5044217;28;20140;-66
2021/03/25 04:26:24;;;;;;;27.85;18.40;;;;;;;8.43;49.22;100985.72;5039432;28;20068;-64
2021/03/25 04:29:19;;;;;;;33.53;18.30;;;;;;;8.45;48.89;100991.72;5040402;28;20053;-64
2021/03/25 04:31:45;;;;;;;29.70;19.30;;;;;;;8.08;49.73;100997.06;5039979;28;20072;-64
2021/03/25 04:34:12;;;;;;;24.38;17.50;;;;;;;8.13;49.68;101003.00;5039683;28;20045;-64
2021/03/25 04:36:45;;;;;;;24.73;17.90;;;;;;;8.17;49.91;101003.75;5049787;28;20418;-65
2021/03/25 04:39:15;;;;;;;27.98;18.40;;;;;;;8.18;49.80;100995.06;5045238;28;20522;-66
2021/03/25 04:41:43;;;;;;;21.27;15.80;;;;;;;8.24;49.37;100995.75;5043766;28;20076;-65
2021/03/25 04:44:44;;;;;;;25.27;16.23;;;;;;;8.25;49.82;101005.22;5043813;28;20055;-66
2021/03/25 04:47:22;;;;;;;22.85;16.92;;;;;;;8.17;50.18;101002.00;5023029;28;20046;-65
2021/03/25 04:49:55;;;;;;;24.70;16.80;;;;;;;8.04;50.24;100998.03;5037680;28;20049;-65
2021/03/25 04:52:24;;;;;;;28.65;18.15;;;;;;;8.21;49.92;100997.59;5042469;28;20041;-65
2021/03/25 04:54:52;;;;;;;25.83;16.52;;;;;;;7.93;50.70;100995.75;5040707;28;20029;-66
2021/03/25 04:57:37;;;;;;;22.80;18.50;;;;;;;7.98;50.49;100995.63;5036970;28;20132;-65
2021/03/25 05:00:12;;;;;;;24.17;18.67;;;;;;;8.14;49.95;100996.91;5046068;28;20144;-64
2021/03/25 05:02:39;;;;;;;24.45;16.10;;;;;;;8.10;50.50;100996.16;5042512;28;20401;-64
2021/03/25 05:05:06;;;;;;;23.95;17.50;;;;;;;8.08;50.36;100999.66;5042766;28;20465;-64
2021/03/25 05:07:38;;;;;;;24.60;18.45;;;;;;;8.21;49.97;100998.44;5043622;28;20045;-65
2021/03/25 05:10:16;;;;;;;24.20;17.00;;;;;;;8.03;50.45;101007.56;5040530;28;20041;-65
2021/03/25 05:12:43;;;;;;;22.90;17.80;;;;;;;7.92;50.95;101017.41;5055246;28;20047;-66
2021/03/25 05:15:14;;;;;;;22.80;17.05;;;;;;;7.98;50.81;101006.00;5054971;28;20128;-67
2021/03/25 05:17:46;;;;;;;24.45;17.38;;;;;;;8.04;50.70;101014.50;5053269;28;20487;-66
2021/03/25 05:20:23;;;;;;;26.00;16.67;;;;;;;7.93;50.63;101019.09;5054456;28;20384;-67
2021/03/25 05:22:52;;;;;;;24.33;17.55;;;;;;;7.91;50.85;101018.31;5054377;28;20499;-67
2021/03/25 05:25:36;;;;;;;26.05;16.48;;;;;;;8.03;50.38;101017.13;5054438;28;20076;-67
2021/03/25 05:28:11;;;;;;;23.20;16.33;;;;;;;8.15;50.35;101022.00;5055051;28;20076;-67
2021/03/25 05:30:39;;;;;;;24.75;18.00;;;;;;;7.99;50.84;101025.88;5054679;28;20060;-66
2021/03/25 05:33:14;;;;;;;27.52;17.48;;;;;;;7.87;51.36;101033.09;5054599;28;20120;-66
2021/03/25 05:35:54;;;;;;;25.67;17.60;;;;;;;8.10;50.96;101029.06;5054624;28;20065;-66
2021/03/25 05:38:21;;;;;;;24.20;16.90;;;;;;;8.33;49.96;101034.47;5054976;28;20045;-66
2021/03/25 05:41:29;;;;;;;22.85;18.40;;;;;;;8.40;50.25;101036.00;5055124;28;20534;-66
2021/03/25 05:44:06;;;;;;;25.27;17.88;;;;;;;8.59;49.95;101041.53;5052286;28;20088;-65
2021/03/25 05:46:54;;;;;;;27.73;17.63;;;;;;;8.77;49.93;101037.53;5049081;28;20072;-68
2021/03/25 05:49:35;;;;;;;25.70;18.67;;;;;;;9.32;47.64;101038.44;5048145;28;20041;-76
2021/03/25 05:52:19;;;;;;;30.45;18.60;;;;;;;9.10;48.43;101050.41;5048396;28;20438;-75
2021/03/25 05:55:04;;;;;;;;;;;;;;;9.60;47.74;101047.94;5052099;28;20079;-76
2021/03/25 05:58:01;;;;;;;29.52;20.27;;;;;;;9.77;46.53;101045.63;5052383;28;19921;-75
2021/03/25 06:00:37;;;;;;;33.60;19.33;;;;;;;10.24;45.44;101045.75;5053859;28;20044;-75
2021/03/25 06:03:16;;;;;;;25.48;17.52;;;;;;;10.60;44.13;101048.78;5049773;28;20033;-76
2021/03/25 06:05:47;;;;;;;24.85;16.83;;;;;;;10.42;45.15;101050.28;5053977;28;20060;-77
2021/03/25 06:08:16;;;;;;;26.45;18.02;;;;;;;10.83;44.09;101053.13;5053623;28;20044;-76
2021/03/25 06:10:54;;;;;;;26.73;18.45;;;;;;;11.13;43.31;101053.72;5050288;28;20552;-76
2021/03/25 06:13:41;;;;;;;24.42;16.63;;;;;;;11.21;43.83;101056.00;5052740;28;20069;-76
2021/03/25 06:16:10;;;;;;;31.42;18.63;;;;;;;11.49;42.32;101068.78;5052410;28;20041;-77
2021/03/25 06:19:01;;;;;;;26.65;17.27;;;;;;;11.70;42.19;101064.44;5051039;28;20124;-78
2021/03/25 06:22:12;;;;;;;30.65;17.92;;;;;;;12.00;41.78;101062.34;5052726;28;20123;-77
2021/03/25 06:24:54;;;;;;;25.65;17.42;;;;;;;12.07;41.20;101056.78;5025251;28;20041;-68
2021/03/25 06:27:53;;;;;;;29.35;17.50;;;;;;;12.44;40.47;101060.38;5053672;28;20451;-68
2021/03/25 06:30:25;;;;;;;28.38;17.60;;;;;;;12.66;40.17;101059.41;5049945;28;20072;-67
2021/03/25 06:33:04;;;;;;;23.48;16.30;;;;;;;13.10;39.17;101050.38;5052663;28;20071;-68
2021/03/25 06:35:57;;;;;;;28.13;17.08;;;;;;;13.19;39.07;101054.28;5052275;28;20403;-69
2021/03/25 06:38:43;;;;;;;22.55;15.73;;;;;;;13.61;38.12;101055.78;5047052;28;20124;-66
2021/03/25 06:41:23;;;;;;;26.77;15.90;;;;;;;13.63;37.76;101057.41;5051861;28;20033;-69
2021/03/25 06:44:00;;;;;;;25.52;17.13;;;;;;;13.47;38.06;101066.06;5052439;28;20494;-67
2021/03/25 06:46:33;;;;;;;25.00;16.48;;;;;;;13.83;37.93;101058.16;5046502;28;20086;-68
2021/03/25 06:49:16;;;;;;;33.77;19.20;;;;;;;14.23;36.92;101066.63;5044514;28;20041;-69
2021/03/25 06:51:42;;;;;;;31.02;17.92;;;;;;;14.32;36.98;101061.72;5046320;28;20177;-67
2021/03/25 06:54:12;;;;;;;27.65;16.38;;;;;;;14.76;36.57;101063.78;5036682;28;20379;-68
2021/03/25 06:56:42;;;;;;;30.90;18.85;;;;;;;15.09;36.22;101058.47;5049010;28;20041;-67
2021/03/25 06:59:34;;;;;;;29.33;19.33;;;;;;;15.38;35.44;101056.78;5052125;28;20083;-66
2021/03/25 07:02:09;;;;;;;28.75;18.40;;;;;;;15.94;34.99;101065.84;5050750;28;20036;-68
2021/03/25 07:04:40;;;;;;;43.38;20.95;;;;;;;16.14;34.04;101072.53;5052286;28;20080;-66
2021/03/25 07:07:15;;;;;;;33.25;17.75;;;;;;;16.76;33.61;101075.75;5050014;28;20041;-65
2021/03/25 07:09:41;;;;;;;41.47;20.00;;;;;;;16.97;32.88;101067.44;5050447;28;20037;-67
2021/03/25 07:12:21;;;;;;;35.00;19.88;;;;;;;17.02;32.85;101075.91;5047331;28;20072;-68
2021/03/25 07:14:50;;;;;;;32.65;19.15;;;;;;;17.39;32.78;101077.00;5042802;28;20053;-67
2021/03/25 07:17:41;;;;;;;32.63;17.95;;;;;;;17.65;33.01;101083.19;5035348;28;20519;-68
2021/03/25 07:20:31;;;;;;;28.52;17.77;;;;;;;18.10;32.46;101085.50;5044633;28;20090;-66
2021/03/25 07:23:14;;;;;;;24.25;17.50;;;;;;;18.20;33.63;101089.22;5042849;28;20377;-67
2021/03/25 07:25:44;;;;;;;23.27;16.53;;;;;;;17.22;34.15;101083.38;5048130;28;20099;-67
2021/03/25 07:28:28;;;;;;;28.00;16.20;;;;;;;18.59;32.39;101081.19;5050293;28;20730;-66
2021/03/25 07:31:03;;;;;;;28.13;19.60;;;;;;;19.00;31.00;101092.41;5043627;28;20143;-66
2021/03/25 07:33:39;;;;;;;22.13;15.75;;;;;;;19.27;29.50;101085.13;5034868;28;20143;-66
2021/03/25 07:36:09;;;;;;;22.50;16.67;;;;;;;19.65;29.64;101092.06;5040544;28;20048;-67
2021/03/25 07:38:38;;;;;;;23.10;17.88;;;;;;;17.63;32.64;101100.94;5039425;28;20072;-66
2021/03/25 07:41:21;;;;;;;39.72;19.75;;;;;;;17.99;32.91;101102.06;5039604;28;20045;-65
2021/03/25 07:43:57;;;;;;;24.52;18.38;;;;;;;17.51;32.60;101107.81;5035980;28;20072;-65
2021/03/25 07:46:29;;;;;;;28.27;18.83;;;;;;;18.76;31.31;101101.16;5038768;28;20095;-65
2021/03/25 07:49:00;;;;;;;25.00;18.23;;;;;;;18.24;31.57;101109.19;5045098;28;20666;-66
2021/03/25 07:51:40;;;;;;;24.77;18.88;;;;;;;18.87;31.45;101107.47;5035848;28;20045;-66
2021/03/25 07:54:12;;;;;;;24.17;17.90;;;;;;;19.22;31.59;101107.56;5045083;28;20056;-66
2021/03/25 07:56:59;;;;;;;37.90;17.00;;;;;;;18.92;31.28;101105.34;5046114;28;20075;-68
2021/03/25 07:59:38;;;;;;;21.20;17.10;;;;;;;20.24;29.32;101113.19;5046893;28;20045;-63
2021/03/25 08:02:25;;;;;;;20.42;15.80;;;;;;;20.00;29.79;101104.44;5045318;28;20072;-65
2021/03/25 08:04:52;;;;;;;22.30;18.35;;;;;;;19.90;29.63;101109.59;5043519;28;20087;-65
2021/03/25 08:07:19;;;;;;;24.98;14.93;;;;;;;19.71;29.83;101110.16;5036761;28;20115;-63
2021/03/25 08:09:50;;;;;;;23.67;16.77;;;;;;;19.58;29.74;101111.97;5043097;28;20052;-65
2021/03/25 08:12:35;;;;;;;25.50;16.13;;;;;;;19.86;30.28;101116.91;5048620;28;20049;-72
2021/03/25 08:15:28;;;;;;;21.90;17.27;;;;;;;18.98;31.07;101120.75;5050555;28;20446;-73
2021/03/25 08:18:05;;;;;;;20.55;17.10;;;;;;;18.88;31.30;101114.44;5033633;28;20053;-69
2021/03/25 08:21:23;;;;;;;19.33;15.35;;;;;;;19.24;31.11;101119.72;5038414;28;20488;-69
2021/03/25 08:24:05;;;;;;;20.80;15.27;;;;;;;20.04;29.93;101119.97;5005949;28;20053;-68
2021/03/25 08:26:51;;;;;;;18.35;14.68;;;;;;;21.20;28.93;101112.69;5044514;28;20479;-67
2021/03/25 08:29:17;;;;;;;20.05;14.13;;;;;;;19.54;30.51;101110.50;5050157;28;20037;-67
2021/03/25 08:32:13;;;;;;;16.10;12.52;;;;;;;19.47;31.10;101112.75;5049789;28;20041;-68
2021/03/25 08:35:07;;;;;;;18.52;14.48;;;;;;;20.73;28.93;101112.03;5053636;28;20065;-67
2021/03/25 08:37:46;;;;;;;16.45;12.18;;;;;;;21.40;28.07;101103.97;5051390;28;20079;-65
2021/03/25 08:40:46;;;;;;;16.65;12.98;;;;;;;22.38;26.74;101109.06;5053986;28;20037;-68
2021/03/25 08:43:33;;;;;;;17.27;14.25;;;;;;;22.35;26.79;101104.00;5051968;28;20072;-66
2021/03/25 08:46:21;;;;;;;17.27;13.93;;;;;;;22.81;26.07;101105.31;5051989;28;20717;-69
2021/03/25 08:49:01;;;;;;;20.80;15.98;;;;;;;22.06;27.14;101106.47;5053956;28;20443;-75
2021/03/25 08:51:39;;;;;;;19.40;15.15;;;;;;;22.95;26.21;101104.94;5051308;28;20418;-75
2021/03/25 08:54:17;;;;;;;20.83;15.98;;;;;;;22.86;26.15;101105.75;5051771;28;20044;-80
2021/03/25 08:57:02;;;;;;;29.02;17.38;;;;;;;23.25;25.42;101103.19;5050981;28;20071;-77
2021/03/25 09:00:11;;;;;;;23.95;16.92;;;;;;;21.82;26.91;101104.03;5047445;28;20128;-78
2021/03/25 09:02:42;;;;;;;20.80;16.95;;;;;;;21.73;27.33;101106.63;4991032;28;20042;-78
2021/03/25 09:05:40;;;;;;;23.95;17.38;;;;;;;22.00;27.49;101098.16;4990787;28;20054;-78
2021/03/25 09:08:12;;;;;;;25.42;16.80;;;;;;;21.48;28.08;101099.88;5035603;28;20041;-80
2021/03/25 09:10:51;;;;;;;23.27;17.75;;;;;;;21.58;27.93;101095.50;5053125;28;20037;-78
2021/03/25 09:13:21;;;;;;;23.55;18.08;;;;;;;21.23;28.74;101095.69;5047597;28;20052;-78
2021/03/25 09:15:50;;;;;;;29.38;18.60;;;;;;;20.42;29.70;101105.59;5052516;28;20487;-78
2021/03/25 09:18:19;;;;;;;21.95;16.75;;;;;;;20.66;29.28;101103.69;5052957;28;20106;-78
2021/03/25 09:20:50;;;;;;;26.27;17.98;;;;;;;20.05;29.94;101099.66;5051338;28;20041;-77
2021/03/25 09:23:29;;;;;;;23.80;20.20;;;;;;;19.94;30.58;101105.75;5050537;28;20114;-78
2021/03/25 09:26:01;;;;;;;22.10;18.98;;;;;;;19.49;31.69;101094.97;5052496;28;20094;-79
2021/03/25 09:28:58;;;;;;;28.38;18.90;;;;;;;19.50;31.89;101082.63;5052345;28;20056;-77
2021/03/25 09:31:27;;;;;;;25.20;18.42;;;;;;;19.11;32.23;101082.75;5051917;28;20049;-78
2021/03/25 09:33:56;;;;;;;29.67;20.67;;;;;;;18.98;32.75;101089.06;5051082;28;20041;-78
2021/03/25 09:36:31;;;;;;;35.03;21.90;;;;;;;18.76;32.79;101087.09;5052001;28;20048;-76
2021/03/25 09:38:58;;;;;;;29.17;20.73;;;;;;;18.19;32.76;101084.91;5051652;28;20041;-78
2021/03/25 09:41:24;;;;;;;26.42;20.05;;;;;;;18.38;33.08;101090.59;5052436;28;20658;-78
2021/03/25 09:44:15;;;;;;;26.02;19.80;;;;;;;18.16;33.72;101083.28;5050715;28;20037;-80
2021/03/25 09:46:45;;;;;;;30.42;22.13;;;;;;;17.58;34.37;101086.31;5052276;28;20041;-77
2021/03/25 09:49:53;;;;;;;31.73;21.23;;;;;;;17.82;34.42;101089.19;5049214;28;20037;-79
2021/03/25 09:52:35;;;;;;;31.40;22.52;;;;;;;18.14;34.08;101082.56;5049840;28;20049;-82
2021/03/25 09:55:02;;;;;;;38.28;24.42;;;;;;;17.99;33.98;101091.50;5050628;28;20071;-80
2021/03/25 09:57:37;;;;;;;38.15;24.95;;;;;;;17.44;33.94;101092.53;5053218;28;20091;-79
2021/03/25 10:00:07;;;;;;;33.38;24.00;;;;;;;17.43;34.43;101091.69;5051921;28;20064;-78
2021/03/25 10:02:48;;;;;;;35.13;23.38;;;;;;;17.76;33.85;101088.63;5048768;28;20049;-78
2021/03/25 10:08:01;;;;;;;29.15;21.38;;;;;;;17.61;35.16;101088.78;5050612;28;20391;-77
2021/03/25 10:10:49;;;;;;;33.10;24.52;;;;;;;17.36;35.88;101085.09;5052277;28;20056;-78
2021/03/25 10:13:34;;;;;;;27.85;22.85;;;;;;;17.36;34.99;101085.09;5052146;28;20041;-75
2021/03/25 10:16:34;;;;;;;31.63;24.40;;;;;;;17.36;34.26;101079.81;5048784;28;20131;-77
2021/03/25 10:19:11;;;;;;;29.77;22.98;;;;;;;17.33;33.96;101074.78;5048333;28;20143;-76
2021/03/25 10:21:44;;;;;;;28.98;24.33;;;;;;;17.09;34.19;101079.81;5046082;28;20056;-73
2021/03/25 10:24:24;;;;;;;29.20;23.45;;;;;;;17.25;34.44;101071.78;5045450;28;20037;-74
2021/03/25 10:27:00;;;;;;;32.78;23.77;;;;;;;17.26;34.42;101069.06;5043212;28;20048;-71
2021/03/25 10:29:33;;;;;;;32.25;23.98;;;;;;;17.26;34.39;101074.34;5040475;28;20479;-77
2021/03/25 10:32:02;;;;;;;34.10;26.15;;;;;;;17.40;34.59;101073.41;5037694;28;20044;-69
2021/03/25 10:34:34;;;;;;;43.30;25.80;;;;;;;17.64;33.72;101078.03;5038328;28;20033;-75
2021/03/25 10:37:04;;;;;;;35.22;26.25;;;;;;;17.64;32.81;101067.50;5050016;28;20399;-71
2021/03/25 10:39:41;;;;;;;32.10;25.08;;;;;;;17.77;32.97;101069.22;5035265;28;20080;-70
2021/03/25 10:42:24;;;;;;;37.92;26.08;;;;;;;17.67;33.09;101062.00;5036407;28;20042;-75
2021/03/25 10:44:51;;;;;;;35.03;26.08;;;;;;;17.91;33.00;101059.56;5034709;28;20045;-77
2021/03/25 10:47:30;;;;;;;39.80;28.85;;;;;;;17.65;32.92;101054.19;5043740;28;20053;-74
2021/03/25 10:50:01;;;;;;;34.05;26.33;;;;;;;17.74;33.42;101058.06;5050949;28;20132;-74
2021/03/25 10:52:40;;;;;;;40.35;28.20;;;;;;;17.55;33.38;101053.97;5049829;28;20073;-75
2021/03/25 10:55:13;;;;;;;39.95;27.67;;;;;;;17.52;33.33;101058.59;5049737;28;20041;-74
2021/03/25 10:57:39;;;;;;;35.38;27.27;;;;;;;17.60;33.40;101045.75;5050685;28;20044;-76
2021/03/25 11:00:36;;;;;;;42.13;29.52;;;;;;;17.35;33.25;101045.69;5050486;28;20036;-74
2021/03/25 11:03:26;;;;;;;37.15;28.63;;;;;;;17.40;33.36;101049.69;5048843;28;20799;-73
2021/03/25 11:05:58;;;;;;;36.78;29.45;;;;;;;17.74;32.51;101042.22;5048091;28;20099;-71
2021/03/25 11:08:32;;;;;;;37.10;29.35;;;;;;;17.78;31.89;101035.78;5050501;28;20041;-73
2021/03/25 11:11:00;;;;;;;;;;;;;;;17.81;32.23;101038.22;5051272;28;20392;-75
2021/03/25 11:13:28;;;;;;;40.20;28.58;;;;;;;17.86;31.65;101036.13;5048115;28;19990;-75
2021/03/25 11:15:58;;;;;;;37.67;26.35;;;;;;;17.89;31.97;101035.06;5049190;28;20507;-75
2021/03/25 11:19:03;;;;;;;43.95;30.80;;;;;;;17.89;32.26;101032.41;5047358;28;20053;-74
2021/03/25 11:21:34;;;;;;;42.58;30.67;;;;;;;17.49;32.92;101028.00;5029116;28;20560;-73
2021/03/25 11:24:22;;;;;;;40.85;30.23;;;;;;;17.62;31.87;101030.66;5047821;28;20041;-75
2021/03/25 11:27:01;;;;;;;44.63;31.25;;;;;;;17.66;31.79;101026.03;5048888;28;20527;-74
2021/03/25 11:29:32;;;;;;;41.70;32.88;;;;;;;17.64;32.00;101027.94;5048945;28;20071;-73
2021/03/25 11:32:16;;;;;;;42.33;29.73;;;;;;;17.77;32.07;101020.91;5038952;28;20067;-74
2021/03/25 11:34:44;;;;;;;;;;;;;;;17.89;32.00;101027.13;5040801;28;20124;-67
2021/03/25 11:37:29;;;;;;;57.22;43.65;;;;;;;17.64;31.29;101014.75;5039498;28;19933;-73
2021/03/25 11:40:13;;;;;;;46.78;34.42;;;;;;;17.82;31.29;101017.97;5036721;28;20506;-74
2021/03/25 11:42:44;;;;;;;46.05;32.42;;;;;;;17.66;31.62;101013.69;5048707;28;20118;-74
2021/03/25 11:45:38;;;;;;;45.50;34.00;;;;;;;17.69;31.82;101013.50;5049912;28;20132;-74
2021/03/25 11:48:36;;;;;;;45.20;32.75;;;;;;;17.72;32.35;101013.31;5049940;28;20553;-74
2021/03/25 11:51:15;;;;;;;49.33;33.78;;;;;;;17.65;31.95;101012.00;5041315;28;20048;-74
2021/03/25 11:53:52;;;;;;;48.25;36.53;;;;;;;17.58;32.27;101008.13;5049965;28;20037;-74
2021/03/25 11:56:27;;;;;;;44.45;34.30;;;;;;;17.83;31.68;101007.31;5047663;28;20495;-74
2021/03/25 11:59:22;;;;;;;54.83;35.47;;;;;;;17.77;32.35;101000.66;5047734;28;20553;-74
2021/03/25 12:01:49;;;;;;;48.22;38.38;;;;;;;17.80;32.08;101005.75;5050310;28;20102;-75